Time;durP1;ratioP1;P1;durP2;ratioP2;P2;SDS_P1;SDS_P2;PMS_P1;PMS_P2;Temp;Humidity;BMP_temperature;BMP_pressure;BME280_temperature;BME280_humidity;BME280_pressure;Samples;Min_cycle;Max_cycle;Signal;HPM_P1;HPM_P2
2023/05/10 00:00:00;;;;;;;20.35;12.88;;;;;;;12.99;100.00;100556.91;4987157;28;20133;-72
2023/05/10 00:02:26;;;;;;;23.33;12.50;;;;;;;13.07;100.00;100558.63;4999685;28;20038;-72
2023/05/10 00:04:52;;;;;;;21.95;12.57;;;;;;;13.10;100.00;100555.69;4997950;28;20058;-72
2023/05/10 00:07:17;;;;;;;21.27;12.80;;;;;;;13.00;100.00;100556.75;4986817;28;20026;-72
2023/05/10 00:09:43;;;;;;;22.42;13.25;;;;;;;13.01;100.00;100565.34;4984766;28;20057;-72
2023/05/10 00:12:09;;;;;;;24.70;13.75;;;;;;;12.98;100.00;100561.31;4983446;28;20145;-72
2023/05/10 00:14:34;;;;;;;24.05;13.50;;;;;;;12.90;100.00;100563.97;4999155;28;20060;-74
2023/05/10 00:17:00;;;;;;;22.63;12.48;;;;;;;12.90;100.00;100558.78;4986174;28;20037;-72
2023/05/10 00:19:25;;;;;;;18.60;11.93;;;;;;;12.87;100.00;100561.75;4999051;28;20448;-72
2023/05/10 00:21:51;;;;;;;19.67;11.85;;;;;;;12.84;100.00;100567.28;4989043;28;20485;-72
2023/05/10 00:24:16;;;;;;;22.33;12.27;;;;;;;12.79;100.00;100561.81;4986399;28;20077;-72
2023/05/10 00:26:42;;;;;;;22.30;12.80;;;;;;;12.80;100.00;100560.84;4990603;28;20038;-72
2023/05/10 00:29:08;;;;;;;21.88;13.02;;;;;;;12.82;100.00;100559.66;5006072;28;20468;-72
2023/05/10 00:31:34;;;;;;;18.45;11.05;;;;;;;12.81;100.00;100562.47;5006536;28;20065;-72
2023/05/10 00:33:59;;;;;;;18.75;11.98;;;;;;;12.81;100.00;100557.25;5002890;28;20050;-73
2023/05/10 00:36:25;;;;;;;19.75;11.82;;;;;;;12.78;100.00;100563.59;5005914;28;20100;-72
2023/05/10 00:38:50;;;;;;;18.58;10.48;;;;;;;12.74;100.00;100564.13;5002436;28;20061;-72
2023/05/10 00:41:16;;;;;;;15.63;10.02;;;;;;;12.75;100.00;100565.75;4992042;28;20030;-73
2023/05/10 00:43:43;;;;;;;17.13;10.55;;;;;;;12.74;100.00;100569.34;5003929;28;20136;-72
2023/05/10 00:46:09;;;;;;;14.43;8.55;;;;;;;12.70;100.00;100560.28;5003175;28;20034;-74
2023/05/10 00:48:38;;;;;;;14.98;8.85;;;;;;;12.68;100.00;100568.25;5003409;28;20038;-72
2023/05/10 00:51:03;;;;;;;17.20;9.65;;;;;;;12.68;100.00;100570.03;5005417;28;20041;-72
2023/05/10 00:53:31;;;;;;;12.73;8.25;;;;;;;12.64;100.00;100573.00;4989540;28;20050;-73
2023/05/10 00:55:57;;;;;;;15.40;9.27;;;;;;;12.64;100.00;100561.78;5006509;28;20030;-72
2023/05/10 00:58:23;;;;;;;13.07;7.45;;;;;;;12.61;100.00;100573.34;5005164;28;20096;-72
2023/05/10 01:00:51;;;;;;;13.32;7.78;;;;;;;12.61;100.00;100562.94;5006934;28;20048;-72
2023/05/10 01:03:17;;;;;;;14.23;8.00;;;;;;;12.61;100.00;100569.94;5004609;28;20054;-72
2023/05/10 01:05:42;;;;;;;12.38;7.45;;;;;;;12.60;100.00;100563.94;4993013;28;20085;-73
2023/05/10 01:08:08;;;;;;;13.60;7.20;;;;;;;12.60;100.00;100563.94;5007361;28;20084;-72
2023/05/10 01:10:34;;;;;;;14.15;6.93;;;;;;;12.63;100.00;100566.16;5003562;28;20476;-72
2023/05/10 01:13:00;;;;;;;13.40;7.25;;;;;;;12.62;100.00;100567.16;5005002;28;20443;-71
2023/05/10 01:15:26;;;;;;;13.38;8.48;;;;;;;12.59;100.00;100572.69;5004388;28;20496;-72
2023/05/10 01:17:53;;;;;;;10.60;6.38;;;;;;;12.60;100.00;100568.28;5005380;28;20034;-72
2023/05/10 01:20:18;;;;;;;15.70;6.82;;;;;;;12.62;100.00;100569.75;5006014;28;20034;-72
2023/05/10 01:23:03;;;;;;;13.13;6.93;;;;;;;12.60;100.00;100574.34;4989505;28;20440;-71
2023/05/10 01:25:47;;;;;;;12.05;6.95;;;;;;;12.58;100.00;100571.09;5006323;28;20050;-72
2023/05/10 01:28:26;;;;;;;12.73;8.25;;;;;;;12.61;100.00;100565.53;4989651;28;20536;-72
2023/05/10 01:31:04;;;;;;;14.82;8.27;;;;;;;12.59;100.00;100566.69;5005921;28;20072;-72
2023/05/10 01:33:50;;;;;;;12.25;7.07;;;;;;;12.58;100.00;100563.31;4986579;28;20050;-72
2023/05/10 01:36:47;;;;;;;12.02;6.72;;;;;;;12.60;100.00;100565.69;4984619;28;20097;-72
2023/05/10 01:39:31;;;;;;;10.65;5.97;;;;;;;12.59;100.00;100557.09;5002541;28;20060;-71
2023/05/10 01:42:23;;;;;;;11.05;6.25;;;;;;;12.58;100.00;100562.47;5006365;28;20092;-71
2023/05/10 01:45:07;;;;;;;9.57;6.05;;;;;;;12.58;100.00;100563.31;5007261;28;20133;-72
2023/05/10 01:47:43;;;;;;;10.48;6.10;;;;;;;12.61;100.00;100572.53;5000813;28;20038;-73
2023/05/10 01:50:28;;;;;;;9.68;6.43;;;;;;;12.56;100.00;100567.84;5007770;28;20108;-74
2023/05/10 01:52:56;;;;;;;9.20;6.10;;;;;;;12.55;100.00;100576.63;5009083;28;20031;-72
2023/05/10 01:55:25;;;;;;;9.23;5.88;;;;;;;12.55;100.00;100573.25;5005377;28;20039;-73
2023/05/10 01:58:00;;;;;;;11.48;5.85;;;;;;;12.55;100.00;100570.63;5004133;28;20030;-72
2023/05/10 02:00:28;;;;;;;10.32;5.72;;;;;;;12.57;100.00;100574.66;5004445;28;20619;-72
2023/05/10 02:02:55;;;;;;;9.18;5.88;;;;;;;12.58;100.00;100575.47;4985177;28;20488;-72
2023/05/10 02:05:22;;;;;;;9.63;6.15;;;;;;;12.56;100.00;100573.03;5003452;28;20108;-71
2023/05/10 02:07:52;;;;;;;12.32;6.82;;;;;;;12.55;100.00;100576.63;5001654;28;20045;-71
2023/05/10 02:10:19;;;;;;;10.65;6.07;;;;;;;12.55;100.00;100579.25;5001948;28;20045;-72
2023/05/10 02:12:48;;;;;;;10.93;6.13;;;;;;;12.54;100.00;100574.22;4999637;28;20054;-71
2023/05/10 02:15:22;;;;;;;10.27;6.10;;;;;;;12.55;100.00;100579.25;5002032;28;20034;-71
2023/05/10 02:17:48;;;;;;;11.45;6.50;;;;;;;12.55;100.00;100579.25;5003766;28;20033;-72
2023/05/10 02:20:16;;;;;;;9.48;6.10;;;;;;;12.54;100.00;100577.59;5002915;28;20050;-71
2023/05/10 02:22:44;;;;;;;10.35;6.25;;;;;;;12.55;100.00;100578.44;5002392;28;20137;-72
2023/05/10 02:25:13;;;;;;;15.32;6.53;;;;;;;12.52;100.00;100573.56;4998488;28;20125;-71
2023/05/10 02:27:41;;;;;;;11.80;6.47;;;;;;;12.51;100.00;100577.16;4986615;28;20037;-70
2023/05/10 02:30:08;;;;;;;9.82;5.53;;;;;;;12.51;100.00;100577.16;4983106;28;20046;-71
2023/05/10 02:32:35;;;;;;;12.70;6.55;;;;;;;12.54;100.00;100582.81;5000066;28;20038;-71
2023/05/10 02:35:02;;;;;;;10.88;6.38;;;;;;;12.52;100.00;100576.19;4999822;28;20055;-72
2023/05/10 02:37:28;;;;;;;13.15;6.72;;;;;;;12.52;100.00;100581.38;4997737;28;20041;-72
2023/05/10 02:39:55;;;;;;;11.05;6.25;;;;;;;12.50;100.00;100584.16;5002156;28;20059;-71
2023/05/10 02:42:26;;;;;;;12.35;6.63;;;;;;;12.48;100.00;100585.31;4986434;28;20065;-72
2023/05/10 02:44:54;;;;;;;9.98;6.40;;;;;;;12.48;100.00;100587.91;4980406;28;20046;-73
2023/05/10 02:47:20;;;;;;;9.15;6.07;;;;;;;12.49;100.00;100584.31;5000058;28;20034;-73
2023/05/10 02:49:47;;;;;;;9.13;5.97;;;;;;;12.49;100.00;100584.31;5000922;28;20113;-71
2023/05/10 02:52:21;;;;;;;14.68;6.55;;;;;;;12.48;100.00;100585.31;4984640;28;20026;-72
2023/05/10 02:54:52;;;;;;;10.60;6.82;;;;;;;12.43;100.00;100583.22;5002437;28;20042;-72
2023/05/10 02:57:25;;;;;;;10.32;6.45;;;;;;;12.42;100.00;100589.41;5003796;28;20034;-71
2023/05/10 02:59:51;;;;;;;10.25;6.40;;;;;;;12.41;100.00;100587.78;5002105;28;20038;-71
2023/05/10 03:02:16;;;;;;;9.13;6.00;;;;;;;12.39;100.00;100587.94;5003151;28;20041;-72
2023/05/10 03:04:42;;;;;;;11.57;6.75;;;;;;;12.37;100.00;100587.31;5003754;28;20046;-71
2023/05/10 03:07:08;;;;;;;18.70;7.88;;;;;;;12.37;100.00;100582.13;5003357;28;20030;-72
2023/05/10 03:09:34;;;;;;;11.75;6.70;;;;;;;12.36;100.00;100587.50;4999920;28;20038;-71
2023/05/10 03:12:30;;;;;;;14.85;7.97;;;;;;;12.35;100.00;100589.28;5004230;28;20634;-71
2023/05/10 03:15:08;;;;;;;16.88;9.70;;;;;;;12.35;100.00;100591.88;5001044;28;20129;-71
2023/05/10 03:17:55;;;;;;;17.27;10.27;;;;;;;12.35;100.00;100599.69;5005816;28;20385;-71
2023/05/10 03:20:31;;;;;;;16.88;9.07;;;;;;;12.34;100.00;100598.06;5002743;28;20476;-72
2023/05/10 03:23:17;;;;;;;18.42;10.02;;;;;;;12.35;100.00;100602.28;4998175;28;20058;-71
2023/05/10 03:25:46;;;;;;;24.27;12.30;;;;;;;12.43;100.00;100614.41;5003884;28;20523;-72
2023/05/10 03:28:14;;;;;;;21.85;12.07;;;;;;;12.36;100.00;100598.72;4985332;28;20046;-72
2023/05/10 03:30:41;;;;;;;19.42;10.95;;;;;;;12.38;100.00;100603.75;5005093;28;20477;-71
2023/05/10 03:33:09;;;;;;;25.38;13.05;;;;;;;12.36;100.00;100608.31;5002239;28;20042;-72
2023/05/10 03:35:39;;;;;;;24.02;11.82;;;;;;;12.33;100.00;100604.25;5003021;28;20031;-72
2023/05/10 03:38:05;;;;;;;29.55;14.27;;;;;;;12.33;100.00;100609.44;5004849;28;20423;-72
2023/05/10 03:40:31;;;;;;;31.42;15.52;;;;;;;12.35;100.00;100607.47;5003409;28;20049;-72
2023/05/10 03:43:00;;;;;;;26.67;13.20;;;;;;;12.34;100.00;100621.47;5002691;28;20062;-72
2023/05/10 03:45:26;;;;;;;28.38;13.77;;;;;;;12.31;100.00;100615.81;5003512;28;20037;-71
2023/05/10 03:47:52;;;;;;;36.45;17.15;;;;;;;12.34;100.00;100618.03;5000704;28;20501;-72
2023/05/10 03:50:18;;;;;;;34.10;15.60;;;;;;;12.31;100.00;100616.63;5003435;28;20021;-72
2023/05/10 03:52:47;;;;;;;32.08;16.35;;;;;;;12.32;100.00;100622.59;4988806;28;20034;-72
2023/05/10 03:55:12;;;;;;;38.53;16.98;;;;;;;12.32;100.00;100620.84;5003898;28;20142;-71
2023/05/10 03:57:38;;;;;;;37.75;18.00;;;;;;;12.34;100.00;100618.88;5004594;28;20523;-72
2023/05/10 04:00:05;;;;;;;34.95;17.02;;;;;;;12.33;100.00;100624.25;5002021;28;20089;-72
2023/05/10 04:02:42;;;;;;;34.60;16.13;;;;;;;12.33;100.00;100624.25;4989204;28;20038;-72
2023/05/10 04:05:12;;;;;;;35.20;16.60;;;;;;;12.34;100.00;100628.44;4985740;28;20504;-73
2023/05/10 04:07:38;;;;;;;32.70;15.07;;;;;;;12.35;100.00;100633.47;5002940;28;20034;-71
2023/05/10 04:10:04;;;;;;;41.90;18.55;;;;;;;12.37;100.00;100633.31;4987839;28;20098;-72
2023/05/10 04:12:30;;;;;;;35.55;17.48;;;;;;;12.40;100.00;100635.59;4990176;28;20480;-72
2023/05/10 04:14:55;;;;;;;44.00;19.77;;;;;;;12.40;100.00;100633.78;4983558;28;20044;-71
2023/05/10 04:17:21;;;;;;;45.83;19.50;;;;;;;12.39;100.00;100634.75;5004908;28;20088;-72
2023/05/10 04:19:46;;;;;;;39.13;19.17;;;;;;;12.39;100.00;100634.75;5003776;28;20426;-72
2023/05/10 04:22:15;;;;;;;43.13;18.92;;;;;;;12.43;100.00;100630.03;5003219;28;20030;-73
2023/05/10 04:24:41;;;;;;;41.40;19.10;;;;;;;12.41;100.00;100630.22;4990278;28;20050;-72
2023/05/10 04:27:06;;;;;;;42.95;19.10;;;;;;;12.43;100.00;100630.03;4984899;28;20084;-71
2023/05/10 04:29:32;;;;;;;42.38;20.13;;;;;;;12.43;100.00;100630.03;5002691;28;20046;-73
2023/05/10 04:31:57;;;;;;;39.63;18.80;;;;;;;12.45;100.00;100635.84;5002813;28;20073;-71
2023/05/10 04:34:23;;;;;;;38.72;18.60;;;;;;;12.46;100.00;100627.88;4985548;28;20489;-72
2023/05/10 04:36:48;;;;;;;38.90;18.50;;;;;;;12.45;100.00;100628.88;4986834;28;20030;-74
2023/05/10 04:39:14;;;;;;;39.95;17.88;;;;;;;12.42;100.00;100629.22;5002384;28;20559;-71
2023/05/10 04:41:42;;;;;;;40.10;18.58;;;;;;;12.41;100.00;100635.41;5003103;28;20473;-71
2023/05/10 04:44:08;;;;;;;40.63;18.63;;;;;;;12.50;100.00;100632.75;4999887;28;20054;-71
2023/05/10 04:46:33;;;;;;;37.72;18.20;;;;;;;12.45;100.00;100633.25;5021082;23;20063;-72
2023/05/10 04:48:59;;;;;;;41.10;17.30;;;;;;;12.43;100.00;100637.81;5055564;28;20049;-72
2023/05/10 04:51:24;;;;;;;34.65;17.02;;;;;;;12.49;100.00;100638.94;5022523;28;20030;-72
2023/05/10 04:53:49;;;;;;;37.13;17.55;;;;;;;12.44;100.00;100645.47;5025689;28;20161;-72
2023/05/10 04:56:15;;;;;;;29.83;15.70;;;;;;;12.42;100.00;100646.63;5023064;28;20056;-72
2023/05/10 04:58:41;;;;;;;29.75;16.40;;;;;;;12.40;100.00;100648.59;5023770;28;20514;-73
2023/05/10 05:01:08;;;;;;;30.48;15.60;;;;;;;12.37;100.00;100652.31;5040694;28;20048;-73
2023/05/10 05:03:33;;;;;;;37.65;15.80;;;;;;;12.41;100.00;100653.63;5025336;28;20038;-70
2023/05/10 05:05:59;;;;;;;32.55;16.17;;;;;;;12.44;100.00;100658.47;5024946;28;20053;-72
2023/05/10 05:08:25;;;;;;;33.00;17.25;;;;;;;12.40;100.00;100654.59;5021298;28;20049;-72
2023/05/10 05:10:50;;;;;;;33.88;16.00;;;;;;;12.41;100.00;100663.19;5022294;28;20030;-72
2023/05/10 05:13:16;;;;;;;36.13;16.40;;;;;;;12.39;100.00;100657.34;5010236;28;20067;-72
2023/05/10 05:15:41;;;;;;;32.40;15.45;;;;;;;12.39;100.00;100668.56;5060963;22;20048;-75
2023/05/10 05:18:06;;;;;;;33.33;15.07;;;;;;;12.38;100.00;100673.94;5047765;28;20056;-75
2023/05/10 05:20:34;;;;;;;27.45;13.43;;;;;;;12.37;100.00;100673.13;5033030;28;20029;-75
2023/05/10 05:23:00;;;;;;;36.55;15.90;;;;;;;12.36;100.00;100675.91;5039809;28;20888;-75
2023/05/10 05:25:26;;;;;;;33.63;15.63;;;;;;;12.41;100.00;100671.81;5013227;28;20021;-75
2023/05/10 05:27:51;;;;;;;29.05;14.15;;;;;;;12.33;100.00;100668.44;5047276;28;20032;-75
2023/05/10 05:30:17;;;;;;;31.95;16.10;;;;;;;12.38;100.00;100671.34;5021653;28;20491;-75
2023/05/10 05:32:42;;;;;;;38.22;14.75;;;;;;;12.34;100.00;100675.25;5051430;28;20396;-75
2023/05/10 05:35:08;;;;;;;35.15;15.90;;;;;;;12.38;100.00;100681.75;5049404;28;20048;-74
2023/05/10 05:37:33;;;;;;;32.50;15.93;;;;;;;12.33;100.00;100684.84;5051001;28;20091;-74
2023/05/10 05:40:02;;;;;;;32.83;15.63;;;;;;;12.30;100.00;100685.19;5032128;28;20056;-74
2023/05/10 05:42:28;;;;;;;38.88;16.55;;;;;;;12.33;100.00;100682.25;5033299;28;20029;-74
2023/05/10 05:44:53;;;;;;;32.80;16.75;;;;;;;12.31;100.00;100684.22;5045868;28;20057;-75
2023/05/10 05:47:19;;;;;;;38.08;18.00;;;;;;;12.39;100.00;100684.16;5050183;28;20032;-75
2023/05/10 05:49:47;;;;;;;47.55;19.75;;;;;;;12.44;100.00;100687.06;5028074;28;20037;-75
2023/05/10 05:52:16;;;;;;;43.50;18.40;;;;;;;12.48;100.00;100694.53;5047640;28;20497;-75
2023/05/10 05:54:44;;;;;;;41.63;19.02;;;;;;;12.42;100.00;100689.03;5042302;28;20056;-75
2023/05/10 05:57:10;;;;;;;39.42;17.23;;;;;;;12.35;100.00;100693.28;5032134;28;20090;-75
2023/05/10 05:59:36;;;;;;;48.88;18.92;;;;;;;12.41;100.00;100703.03;5014894;28;20045;-74
2023/05/10 06:02:01;;;;;;;31.92;16.02;;;;;;;12.38;100.00;100702.56;5031540;28;20033;-75
2023/05/10 06:04:27;;;;;;;35.45;17.33;;;;;;;12.33;100.00;100704.84;5019153;28;20075;-75
2023/05/10 06:06:52;;;;;;;39.85;17.45;;;;;;;12.35;100.00;100708.06;5031534;28;20079;-74
2023/05/10 06:09:18;;;;;;;35.90;15.63;;;;;;;12.36;100.00;100710.53;5049916;28;20059;-75
2023/05/10 06:11:46;;;;;;;32.95;15.13;;;;;;;12.39;100.00;100710.16;5049387;28;20284;-75
2023/05/10 06:14:12;;;;;;;45.10;17.35;;;;;;;12.44;100.00;100713.06;5049745;28;20053;-75
2023/05/10 06:16:37;;;;;;;49.20;17.13;;;;;;;12.44;100.00;100713.06;5033615;28;20063;-74
2023/05/10 06:19:03;;;;;;;40.10;17.48;;;;;;;12.54;100.00;100709.44;5030792;28;20526;-75
2023/05/10 06:21:28;;;;;;;43.92;17.83;;;;;;;12.62;100.00;100709.41;5032184;28;20030;-75
2023/05/10 06:23:54;;;;;;;39.55;16.83;;;;;;;12.62;100.00;100720.63;5046563;28;20052;-75
2023/05/10 06:26:20;;;;;;;43.45;17.15;;;;;;;12.68;100.00;100718.31;5048122;28;20028;-75
2023/05/10 06:28:48;;;;;;;44.35;19.58;;;;;;;12.81;100.00;100715.97;5047987;28;20048;-75
2023/05/10 06:31:17;;;;;;;36.17;16.40;;;;;;;12.84;100.00;100708.59;5047977;28;20078;-75
2023/05/10 06:33:43;;;;;;;46.15;18.77;;;;;;;12.87;100.00;100717.88;5028437;28;20044;-76
2023/05/10 06:36:08;;;;;;;36.75;16.85;;;;;;;12.91;100.00;100713.13;5048991;28;20021;-75
2023/05/10 06:38:33;;;;;;;39.38;16.98;;;;;;;12.91;100.00;100718.34;5033361;28;20045;-75
2023/05/10 06:40:59;;;;;;;46.20;20.38;;;;;;;12.87;100.00;100717.88;5047357;28;20029;-74
2023/05/10 06:43:26;;;;;;;41.20;18.00;;;;;;;12.93;100.00;100718.97;5045689;28;20033;-75
2023/05/10 06:45:51;;;;;;;34.10;15.15;;;;;;;12.97;100.00;100728.06;5028568;28;20133;-75
2023/05/10 06:48:17;;;;;;;30.67;14.93;;;;;;;12.96;100.00;100727.25;5043873;28;20112;-75
2023/05/10 06:50:42;;;;;;;33.08;16.10;;;;;;;13.01;100.00;100730.13;5029195;28;20394;-75
2023/05/10 06:53:11;;;;;;;41.83;17.05;;;;;;;13.10;100.00;100732.69;5043128;28;20048;-75
2023/05/10 06:55:37;;;;;;;57.17;24.00;;;;;;;13.10;100.00;100735.28;5049038;28;20057;-75
2023/05/10 06:58:03;;;;;;;60.65;25.20;;;;;;;13.12;100.00;100735.94;5042832;28;20065;-75
2023/05/10 07:00:28;;;;;;;59.97;24.55;;;;;;;13.19;100.00;100735.06;5031279;28;22679;-75
2023/05/10 07:02:54;;;;;;;66.63;24.80;;;;;;;13.27;100.00;100735.97;5030686;28;20059;-75
2023/05/10 07:05:20;;;;;;;54.92;23.33;;;;;;;13.30;100.00;100740.81;5046519;28;20479;-75
2023/05/10 07:07:46;;;;;;;50.03;22.98;;;;;;;13.25;100.00;100741.34;5032833;28;20040;-75
2023/05/10 07:10:11;;;;;;;55.60;23.02;;;;;;;13.24;100.00;100737.13;5028728;28;20025;-76
2023/05/10 07:12:37;;;;;;;58.47;22.75;;;;;;;13.27;100.00;100746.38;5049517;28;20036;-75
2023/05/10 07:15:07;;;;;;;57.22;23.05;;;;;;;13.27;100.00;100741.19;5029706;28;20075;-76
2023/05/10 07:17:35;;;;;;;55.92;23.23;;;;;;;13.28;100.00;100742.78;5027228;28;20116;-75
2023/05/10 07:20:19;;;;;;;58.13;24.35;;;;;;;13.24;100.00;100750.97;5010854;28;20049;-75
2023/05/10 07:22:44;;;;;;;52.22;23.92;;;;;;;13.19;100.00;100748.06;5006326;28;20139;-75
2023/05/10 07:25:13;;;;;;;53.70;24.33;;;;;;;13.23;100.00;100754.53;5042099;28;20041;-75
2023/05/10 07:27:38;;;;;;;50.03;22.55;;;;;;;13.13;100.00;100753.16;5048913;28;20037;-75
2023/05/10 07:30:04;;;;;;;59.30;24.38;;;;;;;13.20;100.00;100756.69;5026147;28;20124;-76
2023/05/10 07:32:30;;;;;;;59.42;25.55;;;;;;;13.19;100.00;100744.66;5031438;28;20067;-75
2023/05/10 07:34:55;;;;;;;55.95;25.52;;;;;;;13.28;100.00;100748.00;5029119;28;20514;-75
2023/05/10 07:37:21;;;;;;;59.53;25.17;;;;;;;13.38;100.00;100752.03;5029821;28;20431;-75
2023/05/10 07:39:46;;;;;;;61.85;25.88;;;;;;;13.46;100.00;100753.75;5046333;28;20044;-75
2023/05/10 07:42:12;;;;;;;61.30;25.88;;;;;;;13.44;100.00;100748.69;5046177;28;20035;-75
2023/05/10 07:44:40;;;;;;;68.13;28.35;;;;;;;13.44;100.00;100748.69;5029815;28;20045;-75
2023/05/10 07:47:06;;;;;;;61.10;26.58;;;;;;;13.46;100.00;100752.94;5043557;28;20131;-75
2023/05/10 07:49:31;;;;;;;58.85;25.35;;;;;;;13.38;100.00;100752.03;5047579;28;20137;-76
2023/05/10 07:51:57;;;;;;;58.00;24.77;;;;;;;13.34;100.00;100757.75;5043595;28;20067;-75
2023/05/10 07:54:22;;;;;;;58.80;23.25;;;;;;;13.29;100.00;100755.63;5026723;28;20033;-75
2023/05/10 07:56:48;;;;;;;58.90;24.90;;;;;;;13.39;100.00;100761.47;5047126;28;20036;-75
2023/05/10 07:59:17;;;;;;;57.65;25.05;;;;;;;13.41;100.00;100758.66;5028194;28;20037;-75
2023/05/10 08:01:43;;;;;;;47.95;23.27;;;;;;;13.50;100.00;100764.63;5012157;28;20033;-75
2023/05/10 08:04:09;;;;;;;46.25;22.45;;;;;;;13.39;100.00;100768.44;5028033;28;20059;-75
2023/05/10 08:06:34;;;;;;;54.97;21.63;;;;;;;13.26;100.00;100769.03;5041487;28;20021;-75
2023/05/10 08:09:00;;;;;;;46.75;21.60;;;;;;;13.23;100.00;100769.38;5029566;28;20053;-75
2023/05/10 08:11:27;;;;;;;57.65;21.98;;;;;;;13.29;100.00;100771.25;5045513;28;20108;-75
2023/05/10 08:13:53;;;;;;;45.55;19.83;;;;;;;13.27;100.00;100773.22;5046010;28;20071;-76
2023/05/10 08:16:20;;;;;;;45.53;20.63;;;;;;;13.31;100.00;100782.34;5013405;28;20029;-75
2023/05/10 08:18:46;;;;;;;45.20;20.10;;;;;;;13.33;100.00;100777.75;5030605;28;20045;-75
2023/05/10 08:21:13;;;;;;;43.30;19.83;;;;;;;13.41;100.00;100780.31;5045915;28;20111;-75
2023/05/10 08:23:39;;;;;;;38.95;19.67;;;;;;;13.54;100.00;100774.53;5044157;28;20033;-75
2023/05/10 08:26:04;;;;;;;48.05;22.02;;;;;;;13.66;100.00;100779.31;5023935;28;20168;-75
2023/05/10 08:28:29;;;;;;;46.22;20.60;;;;;;;13.76;100.00;100775.44;5028088;28;20052;-75
2023/05/10 08:30:55;;;;;;;42.53;19.83;;;;;;;14.03;100.00;100768.00;5011798;28;20045;-75
2023/05/10 08:33:21;;;;;;;42.97;19.35;;;;;;;14.58;100.00;100777.19;5027712;28;20047;-75
2023/05/10 08:35:46;;;;;;;34.65;17.40;;;;;;;14.73;100.00;100777.19;5028567;28;20033;-76
2023/05/10 08:38:12;;;;;;;35.80;17.50;;;;;;;14.65;100.00;100772.03;5038392;28;20104;-76
2023/05/10 08:40:41;;;;;;;31.60;17.20;;;;;;;14.41;100.00;100784.38;5044041;28;20531;-76
2023/05/10 08:43:12;;;;;;;34.80;16.80;;;;;;;14.37;100.00;100790.97;5024343;28;20048;-75
2023/05/10 08:45:41;;;;;;;33.95;16.65;;;;;;;14.37;100.00;100793.56;5046447;28;20033;-76
2023/05/10 08:48:08;;;;;;;32.58;16.50;;;;;;;14.33;100.00;100784.47;5048701;28;20049;-76
2023/05/10 08:50:37;;;;;;;34.20;16.13;;;;;;;14.41;100.00;100794.03;5049133;28;20025;-76
2023/05/10 08:53:10;;;;;;;34.35;15.70;;;;;;;14.37;100.00;100798.78;5031798;28;20040;-76
2023/05/10 08:55:38;;;;;;;23.70;14.15;;;;;;;14.21;100.00;100806.78;5049869;28;20020;-76
2023/05/10 08:58:04;;;;;;;24.45;13.18;;;;;;;14.22;100.00;100811.00;5049137;28;20068;-76
2023/05/10 09:00:30;;;;;;;31.27;14.63;;;;;;;14.27;100.00;100813.09;5048970;28;20025;-76
2023/05/10 09:02:58;;;;;;;25.02;13.40;;;;;;;14.32;100.00;100819.38;5049290;28;20029;-76
2023/05/10 09:05:23;;;;;;;30.55;13.57;;;;;;;14.23;100.00;100819.66;5049907;28;20043;-76
2023/05/10 09:07:52;;;;;;;26.85;14.10;;;;;;;14.28;100.00;100815.53;5030435;28;20029;-76
2023/05/10 09:10:18;;;;;;;27.58;14.02;;;;;;;14.27;100.00;100813.88;5032175;28;20028;-76
2023/05/10 09:12:47;;;;;;;27.42;13.65;;;;;;;14.41;100.00;100818.31;5031157;28;20028;-76
2023/05/10 09:15:18;;;;;;;25.92;13.73;;;;;;;14.36;100.00;100825.06;5046345;28;20040;-76
2023/05/10 09:17:45;;;;;;;24.65;13.52;;;;;;;14.40;100.00;100824.50;5034241;28;20028;-76
2023/05/10 09:20:10;;;;;;;25.00;13.00;;;;;;;14.44;100.00;100834.59;5044905;28;20033;-76
2023/05/10 09:22:37;;;;;;;22.80;13.30;;;;;;;14.48;100.00;100830.63;5031009;28;20402;-77
2023/05/10 09:25:04;;;;;;;25.83;13.52;;;;;;;14.54;100.00;100835.09;5028380;28;20113;-77
2023/05/10 09:27:30;;;;;;;23.45;13.60;;;;;;;14.66;100.00;100833.69;5046241;28;20021;-77
2023/05/10 09:29:58;;;;;;;31.25;14.70;;;;;;;14.77;100.00;100840.25;5044906;28;20479;-76
2023/05/10 09:32:47;;;;;;;23.50;12.77;;;;;;;14.56;98.61;100835.72;5031058;28;20032;-77
2023/05/10 09:35:14;;;;;;;27.27;13.80;;;;;;;14.40;99.25;100845.38;5027633;28;20083;-76
2023/05/10 09:37:42;;;;;;;31.15;15.40;;;;;;;14.36;99.16;100845.91;5032337;28;20043;-76
2023/05/10 09:40:11;;;;;;;29.83;14.90;;;;;;;14.28;99.16;100845.97;5046808;28;20038;-76
2023/05/10 09:42:37;;;;;;;40.00;15.13;;;;;;;14.17;99.98;100852.47;5049016;28;20025;-76
2023/05/10 09:45:05;;;;;;;30.25;14.38;;;;;;;14.13;100.00;100848.59;5043549;28;20061;-76
2023/05/10 09:47:35;;;;;;;29.65;15.45;;;;;;;14.24;100.00;100848.16;5047505;28;20029;-77
2023/05/10 09:50:04;;;;;;;29.98;14.93;;;;;;;14.32;100.00;100852.47;5027295;28;20044;-76
2023/05/10 09:52:54;;;;;;;30.45;14.82;;;;;;;14.41;100.00;100846.19;5030644;28;20032;-77
2023/05/10 09:55:38;;;;;;;28.77;14.20;;;;;;;14.48;100.00;100847.06;5029168;28;20055;-76
2023/05/10 09:58:04;;;;;;;28.63;14.40;;;;;;;14.65;100.00;100847.72;5042614;28;20033;-77
2023/05/10 10:00:35;;;;;;;29.17;13.75;;;;;;;14.78;100.00;100847.09;5046402;28;20040;-76
2023/05/10 10:03:03;;;;;;;30.70;14.60;;;;;;;14.93;100.00;100844.44;5026964;28;20045;-76
2023/05/10 10:05:29;;;;;;;26.20;14.80;;;;;;;15.05;100.00;100843.00;5046612;28;20094;-77
2023/05/10 10:08:00;;;;;;;32.50;16.63;;;;;;;15.19;97.31;100841.31;5048630;28;20037;-75
2023/05/10 10:10:29;;;;;;;35.75;17.88;;;;;;;15.09;98.08;100844.25;5030593;28;20082;-77
2023/05/10 10:12:55;;;;;;;36.63;17.50;;;;;;;15.09;97.99;100848.66;5031048;28;20029;-76
2023/05/10 10:15:21;;;;;;;28.27;16.52;;;;;;;15.05;97.21;100848.22;5046414;28;20094;-77
2023/05/10 10:17:48;;;;;;;31.33;16.65;;;;;;;15.12;98.20;100843.06;5045103;28;20052;-76
2023/05/10 10:20:15;;;;;;;35.85;18.00;;;;;;;15.01;99.54;100851.38;5046152;28;20491;-76
2023/05/10 10:22:40;;;;;;;35.08;18.40;;;;;;;14.99;98.84;100856.75;5046530;28;20040;-76
2023/05/10 10:25:07;;;;;;;34.72;18.50;;;;;;;15.08;98.07;100853.06;5047526;28;20045;-77
2023/05/10 10:27:33;;;;;;;34.05;18.98;;;;;;;15.19;96.76;100855.19;5046725;28;20085;-77
2023/05/10 10:30:06;;;;;;;36.53;19.17;;;;;;;15.11;97.20;100860.53;5041805;28;20174;-76
2023/05/10 10:33:00;;;;;;;35.65;18.65;;;;;;;15.11;96.98;100864.94;5030665;28;20493;-76
2023/05/10 10:35:33;;;;;;;35.30;19.58;;;;;;;15.15;98.17;100867.00;5027231;28;20094;-77
2023/05/10 10:38:03;;;;;;;32.78;17.40;;;;;;;15.33;98.02;100857.94;5046767;28;20033;-76
2023/05/10 10:40:30;;;;;;;33.80;17.23;;;;;;;15.30;95.97;100858.31;5045853;28;20032;-77
2023/05/10 10:42:57;;;;;;;30.63;16.80;;;;;;;15.24;97.94;100859.03;5040443;28;20035;-77
2023/05/10 10:45:24;;;;;;;35.40;16.33;;;;;;;15.23;97.33;100858.25;5045841;28;20032;-77
2023/05/10 10:48:24;;;;;;;37.95;17.45;;;;;;;15.16;97.93;100865.19;5043434;28;20042;-77
2023/05/10 10:50:57;;;;;;;33.15;17.85;;;;;;;15.09;98.97;100867.75;5042756;28;20029;-76
2023/05/10 10:53:27;;;;;;;29.92;16.63;;;;;;;15.12;98.26;100869.16;5027771;28;20037;-77
2023/05/10 10:56:07;;;;;;;36.55;17.75;;;;;;;15.17;97.25;100872.84;5026576;28;20455;-77
2023/05/10 10:58:37;;;;;;;30.80;17.20;;;;;;;15.06;97.15;100870.72;5046190;23;20045;-75
2023/05/10 11:01:19;;;;;;;24.33;14.82;;;;;;;15.06;98.18;100872.53;5022299;28;20132;-75
2023/05/10 11:04:03;;;;;;;28.48;16.95;;;;;;;15.06;97.27;100868.09;5037483;28;20610;-75
2023/05/10 11:06:33;;;;;;;32.85;16.40;;;;;;;15.03;97.01;100873.72;5026171;28;20048;-75
2023/05/10 11:09:08;;;;;;;29.63;17.15;;;;;;;14.99;98.34;100872.44;5024157;28;20398;-75